createdAt,value
2019-03-27T00:01:56.948Z,44.08
2019-03-27T00:04:27.098Z,44.12
2019-03-27T00:06:57.248Z,44.12
2019-03-27T00:09:27.599Z,44.14
2019-03-27T00:11:57.716Z,44.14
2019-03-27T00:14:27.778Z,44.14
2019-03-27T00:16:57.845Z,44.17
2019-03-27T00:19:27.898Z,44.18
2019-03-27T00:21:57.964Z,44.17
2019-03-27T00:24:28.050Z,44.17
2019-03-27T00:26:58.116Z,44.17
2019-03-27T00:29:28.246Z,44.16
2019-03-27T00:31:58.327Z,44.19
2019-03-27T00:34:28.720Z,44.16
2019-03-27T00:36:58.819Z,44.18
2019-03-27T00:39:28.880Z,44.20
2019-03-27T00:41:59.204Z,44.18
2019-03-27T00:44:29.545Z,44.17
2019-03-27T00:46:59.636Z,44.18
2019-03-27T00:49:29.994Z,44.15
2019-03-27T00:52:00.035Z,44.16
2019-03-27T00:54:30.193Z,44.13
2019-03-27T00:57:00.278Z,44.15
2019-03-27T00:59:30.372Z,44.15
2019-03-27T01:02:00.543Z,44.12
2019-03-27T01:04:30.688Z,44.14
2019-03-27T01:07:00.881Z,44.10
2019-03-27T01:09:31.030Z,44.09
2019-03-27T01:12:01.256Z,44.11
2019-03-27T01:14:31.340Z,44.08
2019-03-27T01:17:01.428Z,44.10
2019-03-27T01:19:31.739Z,44.10
2019-03-27T01:22:01.897Z,44.12
2019-03-27T01:24:31.988Z,44.12
2019-03-27T01:27:02.428Z,44.15
2019-03-27T01:29:32.498Z,44.16
2019-03-27T01:32:02.894Z,44.20
2019-03-27T01:34:33.354Z,44.22
2019-03-27T01:37:03.518Z,44.21
2019-03-27T01:39:33.654Z,44.21
2019-03-27T01:42:03.809Z,44.22
2019-03-27T01:44:33.908Z,44.27
2019-03-27T01:47:04.036Z,44.25
2019-03-27T01:49:34.323Z,44.26
2019-03-27T01:52:04.422Z,44.25
2019-03-27T01:54:34.631Z,44.27
2019-03-27T01:57:04.764Z,44.29
2019-03-27T01:59:35.258Z,44.30
2019-03-27T02:02:05.409Z,44.30
2019-03-27T02:04:35.553Z,44.31
2019-03-27T02:07:05.719Z,44.32
2019-03-27T02:09:35.878Z,44.32
2019-03-27T02:12:06.028Z,44.31
2019-03-27T02:14:36.407Z,44.33
2019-03-27T02:17:07.410Z,44.35
2019-03-27T02:19:37.492Z,44.33
2019-03-27T02:22:08.765Z,44.37
2019-03-27T02:24:38.890Z,44.33
2019-03-27T02:27:09.057Z,44.33
2019-03-27T02:29:39.155Z,44.35
2019-03-27T02:32:09.304Z,44.33
2019-03-27T02:34:39.457Z,44.32
2019-03-27T02:37:09.568Z,44.31
2019-03-27T02:39:39.793Z,44.30
2019-03-27T02:42:09.886Z,44.30
2019-03-27T02:44:40.040Z,44.30
2019-03-27T02:47:10.192Z,44.30
2019-03-27T02:49:40.282Z,44.27
2019-03-27T02:52:10.427Z,44.28
2019-03-27T02:54:40.874Z,44.27
2019-03-27T02:57:10.958Z,44.27
2019-03-27T02:59:41.319Z,44.26
2019-03-27T03:02:11.426Z,44.27
2019-03-27T03:04:44.588Z,44.26
2019-03-27T03:07:14.881Z,44.26
2019-03-27T03:09:45.183Z,44.26
2019-03-27T03:12:15.356Z,44.29
2019-03-27T03:14:45.545Z,44.24
2019-03-27T03:17:15.733Z,44.27
2019-03-27T03:19:45.844Z,44.24
2019-03-27T03:22:15.946Z,44.22
2019-03-27T03:24:46.115Z,44.23
2019-03-27T03:27:16.268Z,44.24
2019-03-27T03:29:46.414Z,44.22
2019-03-27T03:32:16.526Z,44.23
2019-03-27T03:34:46.653Z,44.22
2019-03-27T03:37:16.806Z,44.21
2019-03-27T03:39:46.901Z,44.19
2019-03-27T03:42:16.969Z,44.20
2019-03-27T03:44:47.311Z,44.22
2019-03-27T03:47:17.398Z,44.23
2019-03-27T03:49:47.465Z,44.24
2019-03-27T03:52:17.854Z,44.25
2019-03-27T03:54:47.971Z,44.27
2019-03-27T03:57:18.394Z,44.27
2019-03-27T03:59:48.455Z,44.27
2019-03-27T04:02:18.512Z,44.28
2019-03-27T04:04:48.668Z,44.28
2019-03-27T04:07:18.768Z,44.29
2019-03-27T04:09:48.930Z,44.28
2019-03-27T04:12:19.520Z,44.33
2019-03-27T04:14:50.120Z,44.33
2019-03-27T04:17:20.349Z,44.38
2019-03-27T04:19:50.779Z,44.37
2019-03-27T04:22:21.106Z,44.40
2019-03-27T04:24:51.485Z,44.39
2019-03-27T04:27:21.772Z,44.40
2019-03-27T04:29:52.109Z,44.42
2019-03-27T04:32:22.367Z,44.42
2019-03-27T04:34:52.634Z,44.43
2019-03-27T04:37:22.826Z,44.45
2019-03-27T04:39:53.226Z,44.42
2019-03-27T04:42:23.518Z,44.41
2019-03-27T04:44:53.708Z,44.40
2019-03-27T04:47:32.159Z,44.38
2019-03-27T04:49:55.978Z,44.39
2019-03-27T04:52:26.224Z,44.38
2019-03-27T04:54:56.522Z,44.38
2019-03-27T04:57:26.796Z,44.38
2019-03-27T04:59:56.999Z,44.37
2019-03-27T05:02:27.338Z,44.35
2019-03-27T05:04:57.956Z,44.35
2019-03-27T05:07:28.083Z,44.35
2019-03-27T05:09:58.381Z,44.36
2019-03-27T05:12:28.703Z,44.34
2019-03-27T05:14:58.911Z,44.38
2019-03-27T05:17:29.437Z,44.41
2019-03-27T05:19:59.661Z,44.48
2019-03-27T05:22:30.146Z,44.51
2019-03-27T05:25:00.466Z,44.58
2019-03-27T05:27:31.026Z,44.59
2019-03-27T05:30:01.406Z,44.62
2019-03-27T05:32:31.701Z,44.65
2019-03-27T05:35:01.938Z,44.69
2019-03-27T05:37:32.518Z,44.73
2019-03-27T05:40:02.865Z,44.76
2019-03-27T05:42:33.193Z,44.78
2019-03-27T05:45:03.444Z,44.80
2019-03-27T05:47:34.020Z,44.82
2019-03-27T05:50:04.445Z,44.82
2019-03-27T05:52:35.169Z,44.86
2019-03-27T05:55:05.657Z,44.88
2019-03-27T05:57:36.114Z,44.92
2019-03-27T06:00:06.719Z,44.92
2019-03-27T06:02:37.078Z,44.92
2019-03-27T06:05:07.744Z,44.95
2019-03-27T06:07:38.428Z,44.96
2019-03-27T06:10:08.839Z,44.95
2019-03-27T06:12:39.151Z,44.97
2019-03-27T06:15:09.547Z,44.99
2019-03-27T06:17:40.095Z,44.98
2019-03-27T06:20:10.336Z,45.00
2019-03-27T06:22:40.679Z,45.05
2019-03-27T06:25:11.536Z,45.07
2019-03-27T06:27:41.904Z,45.05
2019-03-27T06:30:12.184Z,45.03
2019-03-27T06:32:42.347Z,45.04
2019-03-27T06:35:12.736Z,45.04
2019-03-27T06:37:44.004Z,45.08
2019-03-27T06:40:14.460Z,45.08
2019-03-27T06:42:44.876Z,45.06
2019-03-27T06:45:15.036Z,45.10
2019-03-27T06:47:45.219Z,45.11
2019-03-27T06:50:15.524Z,45.12
2019-03-27T06:52:45.810Z,45.13
2019-03-27T06:55:16.628Z,45.09
2019-03-27T06:57:46.952Z,45.12
2019-03-27T07:00:17.166Z,45.13
2019-03-27T07:02:47.234Z,45.17
2019-03-27T07:05:17.300Z,45.17
2019-03-27T07:07:47.376Z,45.20
2019-03-27T07:10:17.703Z,45.22
2019-03-27T07:12:47.816Z,45.22
2019-03-27T07:15:17.877Z,45.22
2019-03-27T07:17:47.929Z,45.22
2019-03-27T07:20:18.289Z,45.21
2019-03-27T07:22:48.344Z,45.21
2019-03-27T07:25:18.532Z,45.24
2019-03-27T07:27:48.845Z,45.24
2019-03-27T07:30:19.258Z,45.23
2019-03-27T07:32:49.469Z,45.23
2019-03-27T07:35:19.845Z,45.21
2019-03-27T07:37:50.012Z,45.25
2019-03-27T07:40:20.290Z,45.27
2019-03-27T07:42:50.656Z,45.27
2019-03-27T07:45:20.957Z,45.39
2019-03-27T07:47:51.477Z,45.35
2019-03-27T07:50:21.654Z,45.39
2019-03-27T07:52:51.829Z,45.37
2019-03-27T07:55:21.969Z,45.38
2019-03-27T07:57:52.211Z,45.35
2019-03-27T08:00:22.718Z,45.33
2019-03-27T08:02:53.440Z,45.35
2019-03-27T08:05:23.664Z,45.35
2019-03-27T08:07:53.875Z,45.93
2019-03-27T08:10:24.119Z,46.21
2019-03-27T08:12:54.342Z,46.61
2019-03-27T08:15:24.980Z,46.69
2019-03-27T08:17:55.272Z,47.54
2019-03-27T08:20:25.649Z,47.44
2019-03-27T08:22:56.147Z,47.31
2019-03-27T08:25:26.383Z,47.29
2019-03-27T08:27:56.805Z,47.12
2019-03-27T08:30:27.264Z,47.05
2019-03-27T08:32:57.512Z,47.00
2019-03-27T08:35:27.871Z,46.92
2019-03-27T08:37:58.289Z,46.83
2019-03-27T08:40:28.845Z,46.81
2019-03-27T08:42:59.114Z,46.77
2019-03-27T08:45:29.475Z,46.72
2019-03-27T08:47:59.788Z,46.69
2019-03-27T08:50:29.949Z,46.62
2019-03-27T08:53:00.359Z,46.61
2019-03-27T08:55:30.620Z,46.56
2019-03-27T08:58:00.983Z,46.53
2019-03-27T09:00:48.126Z,46.27
2019-03-27T09:03:18.321Z,46.01
2019-03-27T09:05:48.448Z,45.80
2019-03-27T09:08:18.639Z,45.70
2019-03-27T09:10:49.854Z,45.58
2019-03-27T09:13:20.298Z,45.48
2019-03-27T09:15:50.594Z,45.41
2019-03-27T09:18:20.711Z,45.31
2019-03-27T09:20:50.849Z,45.25
2019-03-27T09:23:21.012Z,45.18
2019-03-27T09:25:51.667Z,45.07
2019-03-27T09:28:22.183Z,44.96
2019-03-27T09:30:52.404Z,44.82
2019-03-27T09:33:23.063Z,44.74
2019-03-27T09:35:53.251Z,44.60
2019-03-27T09:38:23.354Z,45.02
2019-03-27T09:40:53.474Z,45.00
2019-03-27T09:43:23.604Z,45.09
2019-03-27T09:45:53.871Z,45.17
2019-03-27T09:48:24.514Z,45.27
2019-03-27T09:50:54.688Z,44.86
2019-03-27T09:53:24.872Z,44.81
2019-03-27T09:55:55.068Z,44.87
2019-03-27T09:58:25.673Z,44.64
2019-03-27T10:00:57.880Z,44.64
2019-03-27T10:03:28.310Z,44.28
2019-03-27T10:05:58.669Z,43.93
2019-03-27T10:08:28.948Z,43.94
2019-03-27T10:10:59.248Z,43.85
2019-03-27T10:13:29.545Z,43.59
2019-03-27T10:15:59.602Z,43.39
2019-03-27T10:18:29.859Z,43.30
2019-03-27T10:21:00.134Z,42.93
2019-03-27T10:23:30.379Z,42.77
2019-03-27T10:26:00.690Z,43.16
2019-03-27T10:28:30.900Z,43.50
2019-03-27T10:31:01.223Z,43.41
2019-03-27T10:33:31.518Z,43.60
2019-03-27T10:36:01.727Z,43.77
2019-03-27T10:38:31.904Z,43.62
2019-03-27T10:41:02.621Z,43.57
2019-03-27T10:43:33.014Z,43.73
2019-03-27T10:46:03.269Z,44.39
2019-03-27T10:48:33.666Z,44.67
2019-03-27T10:51:03.937Z,45.61
2019-03-27T10:53:34.160Z,45.86
2019-03-27T10:56:04.394Z,46.23
2019-03-27T10:58:34.704Z,46.36
2019-03-27T11:01:07.273Z,46.69
2019-03-27T11:03:37.185Z,46.46
2019-03-27T11:06:07.829Z,46.59
2019-03-27T11:08:38.006Z,46.55
2019-03-27T11:11:08.313Z,46.38
2019-03-27T11:13:38.652Z,46.40
2019-03-27T11:16:09.027Z,46.48
2019-03-27T11:18:39.657Z,46.31
2019-03-27T11:21:09.874Z,46.40
2019-03-27T11:23:40.143Z,46.01
2019-03-27T11:26:10.326Z,45.96
2019-03-27T11:28:40.701Z,46.03
2019-03-27T11:31:11.035Z,46.10
2019-03-27T11:33:41.380Z,46.17
2019-03-27T11:36:11.813Z,46.41
2019-03-27T11:38:42.493Z,46.95
2019-03-27T11:41:12.747Z,47.23
2019-03-27T11:43:54.168Z,46.72
2019-03-27T11:46:15.094Z,46.76
2019-03-27T11:48:45.274Z,46.29
2019-03-27T11:51:15.741Z,45.89
2019-03-27T11:53:46.353Z,45.71
2019-03-27T11:56:16.837Z,45.54
2019-03-27T11:58:47.000Z,45.33
2019-03-27T12:01:17.199Z,45.19
2019-03-27T12:03:47.348Z,45.10
2019-03-27T12:06:17.554Z,44.95
2019-03-27T12:08:50.643Z,44.83
2019-03-27T12:11:19.833Z,44.60
2019-03-27T12:13:50.180Z,44.57
2019-03-27T12:16:20.334Z,44.46
2019-03-27T12:18:50.692Z,44.41
2019-03-27T12:21:20.948Z,44.39
2019-03-27T12:23:51.635Z,44.30
2019-03-27T12:26:22.263Z,44.37
2019-03-27T12:28:52.535Z,44.27
2019-03-27T12:31:22.717Z,44.25
2019-03-27T12:33:52.816Z,44.18
2019-03-27T12:36:23.148Z,44.13
2019-03-27T12:38:53.498Z,44.11
2019-03-27T12:41:24.219Z,44.28
2019-03-27T12:43:54.648Z,44.52
2019-03-27T12:46:24.979Z,44.98
2019-03-27T12:48:55.633Z,45.28
2019-03-27T12:51:26.080Z,46.04
2019-03-27T12:53:56.334Z,46.03
2019-03-27T12:56:26.668Z,45.24
2019-03-27T12:58:57.057Z,45.34
2019-03-27T13:01:27.744Z,45.64
2019-03-27T13:03:58.134Z,45.35
2019-03-27T13:06:28.608Z,45.26
2019-03-27T13:08:59.079Z,45.13
2019-03-27T13:11:29.383Z,45.28
2019-03-27T13:13:59.776Z,45.37
2019-03-27T13:16:30.084Z,45.17
2019-03-27T13:19:00.275Z,45.14
2019-03-27T13:21:30.513Z,45.16
2019-03-27T13:24:00.713Z,44.73
2019-03-27T13:26:30.985Z,44.74
2019-03-27T13:29:01.243Z,44.78
2019-03-27T13:31:31.637Z,44.71
2019-03-27T13:34:01.830Z,44.68
2019-03-27T13:36:33.259Z,44.59
2019-03-27T13:39:04.317Z,44.44
2019-03-27T13:41:34.844Z,44.45
2019-03-27T13:44:05.062Z,44.54
2019-03-27T13:46:35.391Z,44.33
2019-03-27T13:49:05.813Z,44.52
2019-03-27T13:51:40.947Z,44.60
2019-03-27T13:54:08.560Z,44.53
2019-03-27T13:56:38.932Z,44.63
2019-03-27T13:59:09.359Z,44.63
2019-03-27T14:01:39.733Z,45.12
2019-03-27T14:04:10.122Z,45.28
2019-03-27T14:06:40.456Z,44.49
2019-03-27T14:09:10.719Z,44.39
2019-03-27T14:11:41.198Z,44.38
2019-03-27T14:14:11.994Z,44.48
2019-03-27T14:16:42.257Z,44.35
2019-03-27T14:19:12.452Z,44.00
2019-03-27T14:21:53.914Z,44.25
2019-03-27T14:24:14.684Z,44.56
2019-03-27T14:26:45.730Z,44.96
2019-03-27T14:29:16.352Z,45.24
2019-03-27T14:31:46.652Z,45.40
2019-03-27T14:34:16.899Z,45.54
2019-03-27T14:36:47.217Z,45.63
2019-03-27T14:39:17.435Z,45.74
2019-03-27T14:41:47.753Z,45.22
2019-03-27T14:44:18.085Z,45.44
2019-03-27T14:46:48.390Z,45.21
2019-03-27T14:49:18.638Z,45.30
2019-03-27T14:51:48.931Z,45.11
2019-03-27T14:54:19.143Z,44.81
2019-03-27T14:56:49.397Z,44.79
2019-03-27T14:59:19.740Z,44.53
2019-03-27T15:01:50.137Z,44.40
2019-03-27T15:04:20.389Z,44.21
2019-03-27T15:06:50.639Z,44.11
2019-03-27T15:09:21.218Z,43.97
2019-03-27T15:11:51.823Z,43.99
2019-03-27T15:14:22.103Z,43.91
2019-03-27T15:16:52.388Z,43.93
2019-03-27T15:19:22.572Z,43.87
2019-03-27T15:21:52.749Z,43.82
2019-03-27T15:24:23.162Z,43.90
2019-03-27T15:26:53.756Z,43.74
2019-03-27T15:29:24.099Z,43.72
2019-03-27T15:31:54.168Z,43.57
2019-03-27T15:34:24.455Z,43.23
2019-03-27T15:36:54.731Z,43.18
2019-03-27T15:39:24.912Z,43.32
2019-03-27T15:41:55.112Z,43.48
2019-03-27T15:44:25.699Z,43.40
2019-03-27T15:46:55.989Z,43.36
2019-03-27T15:49:26.325Z,43.29
2019-03-27T15:51:56.888Z,43.45
2019-03-27T15:54:27.427Z,43.39
2019-03-27T15:56:58.033Z,43.39
2019-03-27T15:59:28.500Z,43.39
2019-03-27T16:01:58.690Z,43.45
2019-03-27T16:04:29.057Z,43.33
2019-03-27T16:06:59.400Z,43.20
2019-03-27T16:09:29.790Z,43.16
2019-03-27T16:12:00.365Z,43.19
2019-03-27T16:14:30.650Z,43.50
2019-03-27T16:17:12.812Z,43.57
2019-03-27T16:19:33.555Z,43.72
2019-03-27T16:22:03.713Z,43.58
2019-03-27T16:24:33.940Z,43.82
2019-03-27T16:27:05.082Z,43.85
2019-03-27T16:29:35.441Z,43.81
2019-03-27T16:32:05.836Z,43.65
2019-03-27T16:34:36.811Z,43.80
2019-03-27T16:37:07.041Z,43.87
2019-03-27T16:39:37.328Z,43.95
2019-03-27T16:42:07.631Z,44.04
2019-03-27T16:44:37.991Z,43.90
2019-03-27T16:47:08.459Z,43.83
2019-03-27T16:49:38.792Z,43.92
2019-03-27T16:52:09.349Z,43.78
2019-03-27T16:54:39.707Z,43.89
2019-03-27T16:57:10.399Z,43.85
2019-03-27T16:59:40.749Z,43.56
2019-03-27T17:02:11.075Z,43.50
2019-03-27T17:04:41.421Z,43.72
2019-03-27T17:07:11.700Z,43.57
2019-03-27T17:09:42.068Z,43.66
2019-03-27T17:12:12.288Z,43.66
2019-03-27T17:14:42.917Z,43.94
2019-03-27T17:17:13.295Z,44.13
2019-03-27T17:19:43.467Z,44.25
2019-03-27T17:22:19.338Z,44.25
2019-03-27T17:24:45.666Z,44.57
2019-03-27T17:27:15.859Z,44.59
2019-03-27T17:29:46.218Z,44.66
2019-03-27T17:32:16.504Z,44.72
2019-03-27T17:34:46.840Z,44.85
2019-03-27T17:37:17.109Z,44.80
2019-03-27T17:39:47.367Z,45.07
2019-03-27T17:42:17.688Z,45.53
2019-03-27T17:44:51.965Z,46.06
2019-03-27T17:47:20.733Z,46.00
2019-03-27T17:49:51.035Z,46.05
2019-03-27T17:52:21.777Z,45.84
2019-03-27T17:54:52.307Z,45.94
2019-03-27T17:57:22.679Z,46.15
2019-03-27T17:59:53.037Z,46.14
2019-03-27T18:02:23.582Z,46.23
2019-03-27T18:04:53.923Z,46.37
2019-03-27T18:07:24.622Z,46.34
2019-03-27T18:09:54.959Z,46.33
2019-03-27T18:12:25.304Z,46.39
2019-03-27T18:14:55.612Z,46.44
2019-03-27T18:17:25.997Z,46.54
2019-03-27T18:19:56.349Z,46.55
2019-03-27T18:22:26.736Z,46.37
2019-03-27T18:24:57.798Z,46.14
2019-03-27T18:27:28.117Z,46.41
2019-03-27T18:29:58.410Z,47.06
2019-03-27T18:32:28.621Z,47.38
2019-03-27T18:34:58.837Z,47.30
2019-03-27T18:37:29.130Z,47.32
2019-03-27T18:39:59.353Z,47.13
2019-03-27T18:42:29.740Z,47.08
2019-03-27T18:45:00.348Z,47.01
2019-03-27T18:47:31.190Z,47.21
2019-03-27T18:50:01.548Z,47.44
2019-03-27T18:52:32.113Z,47.50
2019-03-27T18:55:02.774Z,47.64
2019-03-27T18:57:32.996Z,47.56
2019-03-27T19:00:03.587Z,47.51
2019-03-27T19:02:33.888Z,47.56
2019-03-27T19:05:04.160Z,47.50
2019-03-27T19:07:36.800Z,47.50
2019-03-27T19:10:07.150Z,47.36
2019-03-27T19:12:37.456Z,47.54
2019-03-27T19:15:07.811Z,47.45
2019-03-27T19:17:38.376Z,47.38
2019-03-27T19:20:08.720Z,47.44
2019-03-27T19:22:39.082Z,47.51
2019-03-27T19:25:09.328Z,47.36
2019-03-27T19:27:39.624Z,47.43
2019-03-27T19:30:10.261Z,47.20
2019-03-27T19:32:40.639Z,47.22
2019-03-27T19:35:10.874Z,47.16
2019-03-27T19:37:41.310Z,47.10
2019-03-27T19:40:11.662Z,47.02
2019-03-27T19:42:42.001Z,46.93
2019-03-27T19:45:12.348Z,46.87
2019-03-27T19:47:42.573Z,46.76
2019-03-27T19:50:12.849Z,46.74
2019-03-27T19:52:43.216Z,46.59
2019-03-27T19:55:13.607Z,46.56
2019-03-27T19:57:44.690Z,46.50
2019-03-27T20:00:15.094Z,46.43
2019-03-27T20:02:45.375Z,46.37
2019-03-27T20:05:16.046Z,46.32
2019-03-27T20:07:46.379Z,46.22
2019-03-27T20:10:16.816Z,46.09
2019-03-27T20:12:47.247Z,45.99
2019-03-27T20:15:17.617Z,45.91
2019-03-27T20:17:50.386Z,45.79
2019-03-27T20:20:20.775Z,45.75
2019-03-27T20:22:51.032Z,45.71
2019-03-27T20:25:21.720Z,45.67
2019-03-27T20:27:52.023Z,45.63
2019-03-27T20:30:26.516Z,45.52
2019-03-27T20:32:55.365Z,45.49
2019-03-27T20:35:25.566Z,45.47
2019-03-27T20:37:55.995Z,45.51
2019-03-27T20:40:27.845Z,45.55
2019-03-27T20:42:58.789Z,45.57
2019-03-27T20:45:29.046Z,45.62
2019-03-27T20:47:59.435Z,45.67
2019-03-27T20:50:29.817Z,45.79
2019-03-27T20:53:00.153Z,45.92
2019-03-27T20:55:31.135Z,45.92
2019-03-27T20:58:01.488Z,46.00
2019-03-27T21:00:31.794Z,46.05
2019-03-27T21:03:02.043Z,46.04
2019-03-27T21:05:34.989Z,46.01
2019-03-27T21:08:05.003Z,45.93
2019-03-27T21:10:35.325Z,45.88
2019-03-27T21:13:05.551Z,45.86
2019-03-27T21:15:38.527Z,45.80
2019-03-27T21:18:07.964Z,45.77
2019-03-27T21:20:38.248Z,45.76
2019-03-27T21:23:08.602Z,45.74
2019-03-27T21:25:39.314Z,45.71
2019-03-27T21:28:09.906Z,45.71
2019-03-27T21:30:40.408Z,45.70
2019-03-27T21:33:10.625Z,45.72
2019-03-27T21:35:41.133Z,45.74
2019-03-27T21:38:11.536Z,45.79
2019-03-27T21:40:41.825Z,45.83
2019-03-27T21:43:12.073Z,45.87
2019-03-27T21:45:42.325Z,45.90
2019-03-27T21:48:12.568Z,45.93
2019-03-27T21:50:43.273Z,45.96
2019-03-27T21:53:13.431Z,45.97
2019-03-27T21:55:43.596Z,46.05
2019-03-27T21:58:14.076Z,46.11
2019-03-27T22:00:44.264Z,46.26
2019-03-27T22:03:14.496Z,46.37
2019-03-27T22:05:44.735Z,46.41
2019-03-27T22:08:15.074Z,46.50
2019-03-27T22:10:45.363Z,46.64
2019-03-27T22:13:15.513Z,46.78
2019-03-27T22:15:45.847Z,46.85
2019-03-27T22:18:16.420Z,46.98
2019-03-27T22:20:46.714Z,47.06
2019-03-27T22:23:16.922Z,47.16
2019-03-27T22:25:47.299Z,47.26
2019-03-27T22:28:17.480Z,47.43
2019-03-27T22:30:47.772Z,47.56
2019-03-27T22:33:18.080Z,47.65
2019-03-27T22:35:48.485Z,47.73
2019-03-27T22:38:18.766Z,47.83
2019-03-27T22:40:49.694Z,47.95
2019-03-27T22:43:20.255Z,48.05
2019-03-27T22:45:50.509Z,48.14
2019-03-27T22:48:20.913Z,48.21
2019-03-27T22:50:51.135Z,48.31
2019-03-27T22:53:21.494Z,48.34
2019-03-27T22:55:51.760Z,48.46
2019-03-27T22:58:22.004Z,48.54
2019-03-27T23:00:52.432Z,48.68
2019-03-27T23:03:22.755Z,48.73
2019-03-27T23:05:52.996Z,48.74
2019-03-27T23:08:23.257Z,48.80
2019-03-27T23:10:53.497Z,48.82
2019-03-27T23:13:23.774Z,48.80
2019-03-27T23:15:53.935Z,48.90
2019-03-27T23:18:24.562Z,48.92
2019-03-27T23:20:54.719Z,48.97
2019-03-27T23:23:25.010Z,49.08
2019-03-27T23:26:03.049Z,49.13
2019-03-27T23:28:27.611Z,49.14
2019-03-27T23:30:58.352Z,49.19
2019-03-27T23:33:28.669Z,49.16
2019-03-27T23:35:58.985Z,49.28
2019-03-27T23:38:29.271Z,49.30
2019-03-27T23:40:59.510Z,49.33
2019-03-27T23:43:29.728Z,49.37
2019-03-27T23:46:00.002Z,49.44
2019-03-27T23:48:30.779Z,49.52
2019-03-27T23:51:01.690Z,49.48
2019-03-27T23:53:31.979Z,49.49
2019-03-27T23:56:15.541Z,49.56
2019-03-27T23:58:34.221Z,49.58
